createdAt,value
2018-05-09T00:00:51.183Z,100826.80
2018-05-09T00:01:55.450Z,100825.24
2018-05-09T00:02:59.566Z,100824.06
2018-05-09T00:04:03.724Z,100824.11
2018-05-09T00:05:08.124Z,100820.16
2018-05-09T00:06:12.225Z,100822.95
2018-05-09T00:07:16.330Z,100822.05
2018-05-09T00:08:20.460Z,100820.79
2018-05-09T00:09:24.532Z,100823.19
2018-05-09T00:10:28.589Z,100819.44
2018-05-09T00:11:32.979Z,100814.18
2018-05-09T00:12:37.198Z,100816.65
2018-05-09T00:13:41.359Z,100814.82
2018-05-09T00:14:45.422Z,100819.61
2018-05-09T00:15:49.566Z,100814.70
2018-05-09T00:16:53.700Z,100816.56
2018-05-09T00:17:58.185Z,100814.13
2018-05-09T00:19:02.385Z,100812.48
2018-05-09T00:20:06.800Z,100813.62
2018-05-09T00:21:11.530Z,100812.32
2018-05-09T00:22:16.606Z,100809.35
2018-05-09T00:23:20.692Z,100810.59
2018-05-09T00:24:24.814Z,100807.51
2018-05-09T00:25:28.904Z,100805.69
2018-05-09T00:26:32.981Z,100809.17
2018-05-09T00:27:37.138Z,100803.48
2018-05-09T00:28:41.268Z,100805.17
2018-05-09T00:29:45.852Z,100801.26
2018-05-09T00:30:50.286Z,100800.40
2018-05-09T00:31:54.664Z,100801.22
2018-05-09T00:32:58.754Z,100800.14
2018-05-09T00:34:02.866Z,100797.60
2018-05-09T00:35:06.922Z,100801.00
2018-05-09T00:36:11.322Z,100805.56
2018-05-09T00:37:15.421Z,100805.60
2018-05-09T00:38:19.550Z,100798.20
2018-05-09T00:39:23.631Z,100800.25
2018-05-09T00:40:27.780Z,100797.69
2018-05-09T00:41:31.866Z,100797.60
2018-05-09T00:42:36.293Z,100789.09
2018-05-09T00:43:40.480Z,100792.70
2018-05-09T00:44:44.593Z,100796.35
2018-05-09T00:45:49.283Z,100792.23
2018-05-09T00:46:53.435Z,100797.02
2018-05-09T00:47:58.433Z,100782.33
2018-05-09T00:49:02.600Z,100795.83
2018-05-09T00:50:06.804Z,100787.06
2018-05-09T00:51:10.834Z,100783.45
2018-05-09T00:52:15.413Z,100788.11
2018-05-09T00:53:19.472Z,100787.67
2018-05-09T00:54:33.670Z,100793.66
2018-05-09T00:55:37.726Z,100793.88
2018-05-09T00:56:41.880Z,100789.80
2018-05-09T00:57:45.980Z,100789.84
2018-05-09T00:58:50.031Z,100786.98
2018-05-09T00:59:54.173Z,100794.62
2018-05-09T01:00:58.712Z,100786.50
2018-05-09T01:02:03.110Z,100783.45
2018-05-09T01:03:07.462Z,100784.15
2018-05-09T01:04:11.549Z,100783.20
2018-05-09T01:05:16.558Z,100786.07
2018-05-09T01:06:20.734Z,100786.98
2018-05-09T01:07:25.284Z,100783.55
2018-05-09T01:08:29.439Z,100781.73
2018-05-09T01:09:33.585Z,100781.70
2018-05-09T01:10:37.680Z,100782.86
2018-05-09T01:11:41.828Z,100786.36
2018-05-09T01:12:45.915Z,100782.89
2018-05-09T01:13:50.351Z,100786.80
2018-05-09T01:14:55.249Z,100789.73
2018-05-09T01:16:00.061Z,100787.44
2018-05-09T01:17:04.201Z,100785.20
2018-05-09T01:18:08.270Z,100786.71
2018-05-09T01:19:12.346Z,100784.43
2018-05-09T01:20:17.397Z,100777.95
2018-05-09T01:21:21.517Z,100781.79
2018-05-09T01:22:25.663Z,100779.86
2018-05-09T01:23:30.419Z,100780.13
2018-05-09T01:24:34.661Z,100779.55
2018-05-09T01:25:38.824Z,100777.72
2018-05-09T01:26:43.386Z,100778.67
2018-05-09T01:27:47.619Z,100769.86
2018-05-09T01:28:51.782Z,100783.66
2018-05-09T01:29:56.495Z,100777.97
2018-05-09T01:31:00.805Z,100776.45
2018-05-09T01:32:04.921Z,100772.13
2018-05-09T01:33:09.003Z,100775.48
2018-05-09T01:34:13.056Z,100770.64
2018-05-09T01:35:17.142Z,100773.61
2018-05-09T01:36:21.287Z,100772.83
2018-05-09T01:37:25.354Z,100767.00
2018-05-09T01:38:29.426Z,100770.78
2018-05-09T01:39:34.318Z,100766.63
2018-05-09T01:40:38.417Z,100765.83
2018-05-09T01:41:42.567Z,100768.48
2018-05-09T01:42:46.712Z,100768.25
2018-05-09T01:43:50.832Z,100765.86
2018-05-09T01:44:56.867Z,100763.59
2018-05-09T01:46:01.533Z,100763.10
2018-05-09T01:47:05.604Z,100762.95
2018-05-09T01:48:09.670Z,100761.63
2018-05-09T01:49:15.096Z,100767.42
2018-05-09T01:50:19.989Z,100762.91
2018-05-09T01:51:24.379Z,100768.98
2018-05-09T01:52:28.683Z,100767.97
2018-05-09T01:53:33.201Z,100766.28
2018-05-09T01:54:37.784Z,100770.94
2018-05-09T01:55:42.236Z,100775.41
2018-05-09T01:56:47.122Z,100779.80
2018-05-09T01:57:51.671Z,100771.89
2018-05-09T01:58:55.745Z,100768.06
2018-05-09T01:59:59.881Z,100763.49
2018-05-09T02:01:04.439Z,100773.27
2018-05-09T02:02:09.836Z,100776.11
2018-05-09T02:03:14.230Z,100773.51
2018-05-09T02:04:18.306Z,100766.23
2018-05-09T02:05:22.457Z,100766.80
2018-05-09T02:06:26.548Z,100770.63
2018-05-09T02:07:30.662Z,100773.80
2018-05-09T02:08:34.747Z,100770.76
2018-05-09T02:09:38.886Z,100767.91
2018-05-09T02:10:43.026Z,100762.73
2018-05-09T02:11:47.106Z,100765.81
2018-05-09T02:12:51.177Z,100767.22
2018-05-09T02:13:55.266Z,100764.69
2018-05-09T02:14:59.694Z,100763.55
2018-05-09T02:16:04.456Z,100769.20
2018-05-09T02:17:08.539Z,100767.91
2018-05-09T02:18:12.634Z,100764.78
2018-05-09T02:19:16.757Z,100766.09
2018-05-09T02:20:20.928Z,100768.34
2018-05-09T02:21:25.916Z,100765.30
2018-05-09T02:22:30.268Z,100762.37
2018-05-09T02:23:34.350Z,100766.21
2018-05-09T02:24:38.456Z,100764.20
2018-05-09T02:25:42.587Z,100761.66
2018-05-09T02:26:46.663Z,100760.01
2018-05-09T02:27:50.734Z,100756.92
2018-05-09T02:28:55.181Z,100759.73
2018-05-09T02:29:59.468Z,100764.20
2018-05-09T02:31:04.945Z,100760.59
2018-05-09T02:32:09.039Z,100755.96
2018-05-09T02:33:13.120Z,100754.14
2018-05-09T02:34:17.203Z,100764.55
2018-05-09T02:35:22.779Z,100753.08
2018-05-09T02:36:26.863Z,100754.57
2018-05-09T02:37:30.939Z,100754.46
2018-05-09T02:38:35.011Z,100761.70
2018-05-09T02:39:39.175Z,100754.83
2018-05-09T02:40:43.372Z,100762.81
2018-05-09T02:41:47.422Z,100750.01
2018-05-09T02:42:51.501Z,100753.56
2018-05-09T02:43:55.586Z,100751.59
2018-05-09T02:44:59.697Z,100752.27
2018-05-09T02:46:04.284Z,100750.25
2018-05-09T02:47:08.980Z,100756.92
2018-05-09T02:48:13.033Z,100753.72
2018-05-09T02:49:17.174Z,100756.05
2018-05-09T02:50:21.919Z,100760.33
2018-05-09T02:51:26.062Z,100752.10
2018-05-09T02:52:30.143Z,100751.90
2018-05-09T02:53:34.542Z,100754.00
2018-05-09T02:54:39.305Z,100761.95
2018-05-09T02:55:44.016Z,100763.23
2018-05-09T02:56:48.118Z,100755.14
2018-05-09T02:57:52.224Z,100756.95
2018-05-09T02:58:56.286Z,100764.66
2018-05-09T03:00:00.689Z,100762.39
2018-05-09T03:01:05.174Z,100764.31
2018-05-09T03:02:09.322Z,100770.62
2018-05-09T03:03:13.425Z,100765.39
2018-05-09T03:04:17.503Z,100766.19
2018-05-09T03:05:21.613Z,100773.08
2018-05-09T03:06:25.772Z,100763.56
2018-05-09T03:07:30.475Z,100768.03
2018-05-09T03:08:34.559Z,100764.66
2018-05-09T03:09:38.707Z,100768.75
2018-05-09T03:10:42.751Z,100764.19
2018-05-09T03:11:47.225Z,100771.58
2018-05-09T03:12:51.851Z,100764.91
2018-05-09T03:13:55.933Z,100769.69
2018-05-09T03:15:00.526Z,100768.78
2018-05-09T03:16:04.972Z,100767.46
2018-05-09T03:17:09.080Z,100769.11
2018-05-09T03:18:13.502Z,100768.47
2018-05-09T03:19:17.612Z,100768.52
2018-05-09T03:20:21.743Z,100765.64
2018-05-09T03:21:25.803Z,100767.91
2018-05-09T03:22:30.562Z,100760.47
2018-05-09T03:23:35.800Z,100761.97
2018-05-09T03:24:39.885Z,100763.44
2018-05-09T03:25:43.939Z,100759.05
2018-05-09T03:26:48.126Z,100759.42
2018-05-09T03:27:52.310Z,100765.78
2018-05-09T03:28:56.452Z,100766.53
2018-05-09T03:30:02.640Z,100761.94
2018-05-09T03:31:07.156Z,100765.61
2018-05-09T03:32:11.430Z,100766.59
2018-05-09T03:33:15.573Z,100766.91
2018-05-09T03:34:20.067Z,100765.89
2018-05-09T03:35:24.142Z,100767.27
2018-05-09T03:36:28.868Z,100764.25
2018-05-09T03:37:34.060Z,100766.77
2018-05-09T03:38:38.250Z,100765.39
2018-05-09T03:39:42.328Z,100768.89
2018-05-09T03:40:46.438Z,100767.91
2018-05-09T03:41:50.519Z,100761.95
2018-05-09T03:42:54.636Z,100762.27
2018-05-09T03:43:58.772Z,100768.87
2018-05-09T03:45:04.349Z,100763.25
2018-05-09T03:46:08.847Z,100765.16
2018-05-09T03:47:12.918Z,100767.58
2018-05-09T03:48:16.980Z,100766.85
2018-05-09T03:49:21.555Z,100773.53
2018-05-09T03:50:25.647Z,100773.23
2018-05-09T03:51:30.705Z,100775.73
2018-05-09T03:52:34.820Z,100768.47
2018-05-09T03:53:38.959Z,100773.83
2018-05-09T03:54:43.099Z,100775.30
2018-05-09T03:55:47.481Z,100776.32
2018-05-09T03:56:51.953Z,100778.94
2018-05-09T03:57:56.018Z,100785.00
2018-05-09T03:59:00.109Z,100784.23
2018-05-09T04:00:06.484Z,100783.14
2018-05-09T04:01:11.539Z,100775.41
2018-05-09T04:02:26.611Z,100786.17
2018-05-09T04:07:49.639Z,100787.55
2018-05-09T04:09:56.185Z,100787.76
2018-05-09T04:11:00.259Z,100781.89
2018-05-09T04:12:04.415Z,100776.82
2018-05-09T04:13:08.492Z,100785.79
2018-05-09T04:14:12.915Z,100780.95
2018-05-09T04:15:17.333Z,100783.13
2018-05-09T04:16:21.466Z,100781.03
2018-05-09T04:17:25.527Z,100784.35
2018-05-09T04:18:29.666Z,100780.39
2018-05-09T04:19:34.171Z,100776.05
2018-05-09T04:20:38.914Z,100770.32
2018-05-09T04:21:43.073Z,100772.33
2018-05-09T04:22:47.240Z,100769.52
2018-05-09T04:23:51.790Z,100768.77
2018-05-09T04:24:56.123Z,100766.84
2018-05-09T04:26:00.331Z,100772.33
2018-05-09T04:27:04.993Z,100767.92
2018-05-09T04:28:09.942Z,100777.94
2018-05-09T04:29:14.027Z,100777.37
2018-05-09T04:30:18.282Z,100780.30
2018-05-09T04:31:22.377Z,100782.41
2018-05-09T04:32:26.629Z,100783.11
2018-05-09T04:33:31.793Z,100784.61
2018-05-09T04:34:35.921Z,100782.97
2018-05-09T04:35:40.105Z,100788.17
2018-05-09T04:36:44.179Z,100782.37
2018-05-09T04:37:48.231Z,100788.59
2018-05-09T04:38:52.369Z,100785.56
2018-05-09T04:39:56.527Z,100782.92
2018-05-09T04:41:00.616Z,100778.20
2018-05-09T04:42:04.778Z,100786.59
2018-05-09T04:43:09.349Z,100781.77
2018-05-09T04:44:13.521Z,100787.08
2018-05-09T04:45:18.427Z,100781.16
2018-05-09T04:46:22.775Z,100785.45
2018-05-09T04:47:26.852Z,100788.33
2018-05-09T04:48:31.708Z,100791.17
2018-05-09T04:49:35.844Z,100791.12
2018-05-09T04:50:39.908Z,100783.45
2018-05-09T04:51:44.060Z,100787.91
2018-05-09T04:52:48.134Z,100787.95
2018-05-09T04:53:52.212Z,100787.53
2018-05-09T04:54:56.410Z,100783.25
2018-05-09T04:56:00.542Z,100787.93
2018-05-09T04:57:05.024Z,100783.56
2018-05-09T04:58:09.130Z,100784.60
2018-05-09T04:59:13.191Z,100777.64
2018-05-09T05:00:17.578Z,100789.95
2018-05-09T05:01:21.644Z,100783.66
2018-05-09T05:02:25.715Z,100788.03
2018-05-09T05:03:29.822Z,100788.80
2018-05-09T05:04:34.415Z,100791.92
2018-05-09T05:05:38.567Z,100797.76
2018-05-09T05:06:42.667Z,100788.61
2018-05-09T05:07:46.732Z,100788.99
2018-05-09T05:08:50.802Z,100783.95
2018-05-09T05:09:55.180Z,100789.62
2018-05-09T05:10:59.350Z,100789.28
2018-05-09T05:12:03.506Z,100784.52
2018-05-09T05:13:07.583Z,100788.80
2018-05-09T05:14:11.663Z,100793.06
2018-05-09T05:15:16.512Z,100786.34
2018-05-09T05:16:20.571Z,100786.45
2018-05-09T05:17:24.638Z,100784.09
2018-05-09T05:18:28.799Z,100784.95
2018-05-09T05:19:32.871Z,100782.10
2018-05-09T05:20:37.257Z,100777.55
2018-05-09T05:21:42.096Z,100785.48
2018-05-09T05:22:46.193Z,100780.38
2018-05-09T05:23:50.272Z,100789.86
2018-05-09T05:24:54.422Z,100786.81
2018-05-09T05:25:58.663Z,100791.93
2018-05-09T05:27:03.140Z,100786.89
2018-05-09T05:28:07.466Z,100791.52
2018-05-09T05:29:11.622Z,100780.83
2018-05-09T05:30:16.847Z,100787.59
2018-05-09T05:31:21.426Z,100778.98
2018-05-09T05:32:25.493Z,100782.41
2018-05-09T05:33:29.982Z,100779.37
2018-05-09T05:34:34.070Z,100779.25
2018-05-09T05:35:38.179Z,100781.90
2018-05-09T05:36:42.232Z,100783.88
2018-05-09T05:37:46.362Z,100785.23
2018-05-09T05:38:50.477Z,100784.54
2018-05-09T05:39:54.567Z,100782.15
2018-05-09T05:40:58.638Z,100778.11
2018-05-09T05:42:03.296Z,100779.23
2018-05-09T05:43:07.709Z,100783.48
2018-05-09T05:44:11.774Z,100781.62
2018-05-09T05:45:17.023Z,100782.80
2018-05-09T05:46:21.412Z,100786.94
2018-05-09T05:47:25.488Z,100784.02
2018-05-09T05:48:29.614Z,100785.46
2018-05-09T05:49:33.810Z,100787.73
2018-05-09T05:50:37.972Z,100785.77
2018-05-09T05:51:42.402Z,100785.75
2018-05-09T05:52:46.480Z,100785.34
2018-05-09T05:53:50.686Z,100789.78
2018-05-09T05:54:54.767Z,100787.94
2018-05-09T05:55:58.920Z,100787.48
2018-05-09T05:57:03.032Z,100782.86
2018-05-09T05:58:07.486Z,100780.27
2018-05-09T05:59:11.561Z,100780.64
2018-05-09T06:00:18.141Z,100776.63
2018-05-09T06:01:22.240Z,100775.50
2018-05-09T06:02:26.383Z,100781.62
2018-05-09T06:03:30.523Z,100775.06
2018-05-09T06:04:34.909Z,100774.09
2018-05-09T06:05:39.030Z,100773.47
2018-05-09T06:06:43.178Z,100770.16
2018-05-09T06:07:47.266Z,100773.44
2018-05-09T06:08:51.387Z,100773.01
2018-05-09T06:09:56.131Z,100769.52
2018-05-09T06:11:00.587Z,100771.98
2018-05-09T06:12:04.647Z,100764.70
2018-05-09T06:13:08.809Z,100768.47
2018-05-09T06:14:12.887Z,100769.80
2018-05-09T06:15:17.931Z,100765.64
2018-05-09T06:16:22.027Z,100765.91
2018-05-09T06:17:27.507Z,100766.00
2018-05-09T06:18:31.632Z,100764.93
2018-05-09T06:19:35.767Z,100766.08
2018-05-09T06:20:40.499Z,100764.59
2018-05-09T06:21:44.577Z,100767.60
2018-05-09T06:22:48.683Z,100768.53
2018-05-09T06:23:52.864Z,100766.00
2018-05-09T06:24:56.935Z,100773.47
2018-05-09T06:26:01.035Z,100766.42
2018-05-09T06:27:05.191Z,100768.20
2018-05-09T06:28:09.355Z,100778.39
2018-05-09T06:29:13.839Z,100775.58
2018-05-09T06:30:17.961Z,100778.45
2018-05-09T06:31:22.029Z,100769.73
2018-05-09T06:32:26.117Z,100776.91
2018-05-09T06:33:30.278Z,100775.02
2018-05-09T06:34:34.376Z,100776.94
2018-05-09T06:35:38.746Z,100775.61
2018-05-09T06:36:43.357Z,100780.54
2018-05-09T06:37:47.522Z,100774.83
2018-05-09T06:38:51.621Z,100776.51
2018-05-09T06:39:55.658Z,100778.08
2018-05-09T06:40:59.779Z,100776.94
2018-05-09T06:42:03.883Z,100772.49
2018-05-09T06:43:07.956Z,100773.87
2018-05-09T06:44:12.133Z,100777.88
2018-05-09T06:45:21.130Z,100780.50
2018-05-09T06:46:25.500Z,100783.38
2018-05-09T06:47:29.570Z,100786.34
2018-05-09T06:48:33.743Z,100785.56
2018-05-09T06:49:37.904Z,100780.64
2018-05-09T06:50:43.714Z,100786.47
2018-05-09T06:51:47.775Z,100783.15
2018-05-09T06:52:51.843Z,100787.19
2018-05-09T06:53:55.894Z,100794.69
2018-05-09T06:55:00.120Z,100788.09
2018-05-09T06:56:04.352Z,100787.40
2018-05-09T06:57:08.684Z,100792.08
2018-05-09T06:58:12.832Z,100788.80
2018-05-09T06:59:17.318Z,100795.64
2018-05-09T07:00:21.730Z,100794.79
2018-05-09T07:01:25.885Z,100793.10
2018-05-09T07:02:29.952Z,100796.19
2018-05-09T07:03:34.033Z,100796.48
2018-05-09T07:04:38.114Z,100800.47
2018-05-09T07:05:43.182Z,100799.63
2018-05-09T07:06:47.521Z,100795.78
2018-05-09T07:07:51.384Z,100802.11
2018-05-09T07:08:55.491Z,100806.30
2018-05-09T07:09:59.656Z,100799.59
2018-05-09T07:11:03.834Z,100801.40
2018-05-09T07:12:08.245Z,100803.75
2018-05-09T07:13:13.561Z,100811.70
2018-05-09T07:14:18.404Z,100808.58
2018-05-09T07:15:22.502Z,100803.63
2018-05-09T07:16:26.563Z,100810.41
2018-05-09T07:17:30.628Z,100809.94
2018-05-09T07:18:35.061Z,100809.38
2018-05-09T07:19:39.124Z,100807.34
2018-05-09T07:20:43.302Z,100807.11
2018-05-09T07:21:47.486Z,100811.27
2018-05-09T07:22:51.644Z,100810.25
2018-05-09T07:23:55.748Z,100804.44
2018-05-09T07:24:59.846Z,100804.31
2018-05-09T07:26:04.018Z,100807.70
2018-05-09T07:27:08.747Z,100807.72
2018-05-09T07:28:12.902Z,100803.81
2018-05-09T07:29:17.668Z,100804.50
2018-05-09T07:30:21.723Z,100805.77
2018-05-09T07:31:26.098Z,100803.41
2018-05-09T07:32:30.194Z,100801.20
2018-05-09T07:33:34.242Z,100812.36
2018-05-09T07:34:38.324Z,100802.69
2018-05-09T07:35:42.486Z,100799.37
2018-05-09T07:36:46.578Z,100798.64
2018-05-09T07:37:50.966Z,100797.27
2018-05-09T07:38:55.022Z,100803.48
2018-05-09T07:39:59.212Z,100803.06
2018-05-09T07:41:03.389Z,100807.59
2018-05-09T07:42:07.480Z,100803.72
2018-05-09T07:43:11.631Z,100799.93
2018-05-09T07:44:15.762Z,100802.63
2018-05-09T07:45:20.116Z,100802.93
2018-05-09T07:46:24.200Z,100803.27
2018-05-09T07:47:28.278Z,100803.61
2018-05-09T07:48:32.407Z,100799.04
2018-05-09T07:49:36.796Z,100806.56
2018-05-09T07:50:40.868Z,100802.45
2018-05-09T07:51:45.925Z,100805.03
2018-05-09T07:52:49.992Z,100797.36
2018-05-09T07:53:54.156Z,100795.92
2018-05-09T07:54:58.330Z,100797.25
2018-05-09T07:56:02.806Z,100803.97
2018-05-09T07:57:06.915Z,100800.14
2018-05-09T07:58:11.006Z,100801.28
2018-05-09T07:59:16.037Z,100800.03
2018-05-09T08:00:20.379Z,100798.55
2018-05-09T08:01:24.544Z,100805.83
2018-05-09T08:02:29.027Z,100798.46
2018-05-09T08:03:33.114Z,100804.27
2018-05-09T08:04:37.282Z,100806.78
2018-05-09T08:05:41.914Z,100800.16
2018-05-09T08:06:46.600Z,100797.62
2018-05-09T08:07:50.682Z,100802.47
2018-05-09T08:08:54.746Z,100799.66
2018-05-09T08:09:58.962Z,100800.10
2018-05-09T08:11:03.166Z,100803.66
2018-05-09T08:12:07.235Z,100803.56
2018-05-09T08:13:11.345Z,100802.36
2018-05-09T08:14:16.409Z,100805.80
2018-05-09T08:15:20.802Z,100807.70
2018-05-09T08:16:25.127Z,100802.32
2018-05-09T08:17:29.244Z,100803.19
2018-05-09T08:18:33.334Z,100795.27
2018-05-09T08:19:37.499Z,100800.61
2018-05-09T08:20:41.917Z,100800.74
2018-05-09T08:21:47.032Z,100794.68
2018-05-09T08:22:51.089Z,100798.36
2018-05-09T08:23:55.463Z,100796.67
2018-05-09T08:24:59.606Z,100800.09
2018-05-09T08:26:03.755Z,100797.53
2018-05-09T08:27:08.163Z,100798.59
2018-05-09T08:28:12.267Z,100797.97
2018-05-09T08:29:17.041Z,100800.94
2018-05-09T08:30:21.529Z,100797.88
2018-05-09T08:31:25.572Z,100799.89
2018-05-09T08:32:30.033Z,100801.41
2018-05-09T08:33:34.131Z,100800.91
2018-05-09T08:34:38.217Z,100802.22
2018-05-09T08:35:42.307Z,100798.88
2018-05-09T08:36:46.463Z,100799.67
2018-05-09T08:37:50.582Z,100796.80
2018-05-09T08:38:55.069Z,100797.59
2018-05-09T08:39:59.205Z,100801.50
2018-05-09T08:41:03.369Z,100793.21
2018-05-09T08:42:07.760Z,100789.91
2018-05-09T08:43:12.001Z,100793.79
2018-05-09T08:44:16.013Z,100792.59
2018-05-09T08:45:20.235Z,100794.66
2018-05-09T08:46:24.567Z,100793.41
2018-05-09T08:47:28.669Z,100787.52
2018-05-09T08:48:32.739Z,100793.66
2018-05-09T08:49:36.854Z,100790.67
2018-05-09T08:50:41.253Z,100786.29
2018-05-09T08:51:45.419Z,100795.00
2018-05-09T08:52:50.121Z,100788.59
2018-05-09T08:53:54.289Z,100790.93
2018-05-09T08:54:58.423Z,100790.92
2018-05-09T08:56:02.699Z,100784.17
2018-05-09T08:57:08.111Z,100786.49
2018-05-09T08:58:12.195Z,100786.92
2018-05-09T08:59:16.279Z,100784.05
2018-05-09T09:00:20.719Z,100783.25
2018-05-09T09:01:25.105Z,100786.14
2018-05-09T09:02:29.222Z,100784.19
2018-05-09T09:03:33.603Z,100779.63
2018-05-09T09:04:37.717Z,100778.85
2018-05-09T09:05:41.913Z,100778.55
2018-05-09T09:06:45.983Z,100780.17
2018-05-09T09:07:50.089Z,100784.38
2018-05-09T09:08:54.187Z,100785.25
2018-05-09T09:09:58.301Z,100789.23
2018-05-09T09:11:02.543Z,100786.13
2018-05-09T09:12:07.017Z,100785.19
2018-05-09T09:13:11.107Z,100782.00
2018-05-09T09:14:15.747Z,100779.38
2018-05-09T09:15:20.025Z,100782.50
2018-05-09T09:16:24.375Z,100786.06
2018-05-09T09:17:28.539Z,100787.38
2018-05-09T09:18:32.659Z,100784.72
2018-05-09T09:19:36.837Z,100785.94
2018-05-09T09:20:40.901Z,100786.94
2018-05-09T09:21:45.367Z,100784.18
2018-05-09T09:22:49.483Z,100787.95
2018-05-09T09:23:54.007Z,100785.30
2018-05-09T09:24:58.137Z,100786.77
2018-05-09T09:26:02.283Z,100784.26
2018-05-09T09:27:06.377Z,100782.97
2018-05-09T09:28:10.829Z,100789.78
2018-05-09T09:29:16.116Z,100780.63
2018-05-09T09:30:20.209Z,100784.33
2018-05-09T09:31:24.263Z,100782.45
2018-05-09T09:32:28.337Z,100775.55
2018-05-09T09:33:32.496Z,100779.84
2018-05-09T09:34:36.565Z,100779.33
2018-05-09T09:35:40.725Z,100776.56
2018-05-09T09:36:44.850Z,100773.99
2018-05-09T09:37:49.328Z,100777.09
2018-05-09T09:38:53.405Z,100768.63
2018-05-09T09:39:57.759Z,100770.03
2018-05-09T09:41:01.831Z,100775.19
2018-05-09T09:42:06.117Z,100771.66
2018-05-09T09:43:10.179Z,100774.55
2018-05-09T09:44:14.257Z,100768.13
2018-05-09T09:45:18.580Z,100768.73
2018-05-09T09:46:23.047Z,100766.11
2018-05-09T09:47:27.431Z,100770.55
2018-05-09T09:48:31.613Z,100767.48
2018-05-09T09:49:35.722Z,100768.20
2018-05-09T09:50:39.866Z,100770.86
2018-05-09T09:51:43.879Z,100775.39
2018-05-09T09:52:48.367Z,100774.34
2018-05-09T09:53:52.467Z,100767.36
2018-05-09T09:54:56.554Z,100770.22
2018-05-09T09:56:00.631Z,100757.91
2018-05-09T09:57:04.810Z,100769.81
2018-05-09T09:58:09.299Z,100769.80
2018-05-09T09:59:13.477Z,100766.38
2018-05-09T10:00:21.915Z,100763.50
2018-05-09T10:01:26.026Z,100768.09
2018-05-09T10:02:30.083Z,100764.41
2018-05-09T10:03:34.986Z,100770.02
2018-05-09T10:04:39.361Z,100766.86
2018-05-09T10:05:43.501Z,100764.71
2018-05-09T10:06:47.687Z,100765.52
2018-05-09T10:07:52.369Z,100755.78
2018-05-09T10:08:56.503Z,100761.22
2018-05-09T10:10:00.567Z,100764.30
2018-05-09T10:11:05.837Z,100758.23
2018-05-09T10:12:09.928Z,100760.75
2018-05-09T10:13:14.193Z,100761.40
2018-05-09T10:14:18.471Z,100762.64
2018-05-09T10:15:22.607Z,100757.09
2018-05-09T10:16:27.301Z,100751.66
2018-05-09T10:17:32.259Z,100752.14
2018-05-09T10:18:37.251Z,100753.77
2018-05-09T10:19:41.421Z,100752.64
2018-05-09T10:20:45.531Z,100750.03
2018-05-09T10:21:49.687Z,100747.28
2018-05-09T10:22:53.821Z,100743.54
2018-05-09T10:23:58.293Z,100743.91
2018-05-09T10:25:02.976Z,100743.30
2018-05-09T10:26:07.605Z,100745.89
2018-05-09T10:27:11.745Z,100741.13
2018-05-09T10:28:15.902Z,100742.07
2018-05-09T10:29:20.079Z,100746.22
2018-05-09T10:30:24.257Z,100741.37
2018-05-09T10:31:28.436Z,100742.08
2018-05-09T10:32:32.531Z,100738.39
2018-05-09T10:33:37.142Z,100735.33
2018-05-09T10:34:41.298Z,100738.63
2018-05-09T10:35:45.833Z,100738.27
2018-05-09T10:36:49.937Z,100740.75
2018-05-09T10:37:54.093Z,100739.95
2018-05-09T10:38:58.205Z,100740.27
2018-05-09T10:40:02.318Z,100746.09
2018-05-09T10:41:06.431Z,100741.90
2018-05-09T10:42:11.005Z,100732.89
2018-05-09T10:43:16.108Z,100739.11
2018-05-09T10:44:20.315Z,100732.89
2018-05-09T10:45:24.675Z,100736.36
2018-05-09T10:46:29.056Z,100738.87
2018-05-09T10:47:33.593Z,100738.04
2018-05-09T10:48:38.283Z,100734.33
2018-05-09T10:49:42.352Z,100737.85
2018-05-09T10:50:46.744Z,100732.86
2018-05-09T10:51:50.771Z,100735.09
2018-05-09T10:52:54.949Z,100741.59
2018-05-09T10:53:59.427Z,100727.58
2018-05-09T10:55:03.607Z,100741.03
2018-05-09T10:56:07.709Z,100735.66
2018-05-09T10:57:11.967Z,100735.04
2018-05-09T10:58:16.160Z,100737.08
2018-05-09T10:59:20.357Z,100735.58
2018-05-09T11:00:24.963Z,100730.91
2018-05-09T11:01:29.043Z,100732.03
2018-05-09T11:02:33.259Z,100725.65
2018-05-09T11:03:37.363Z,100725.01
2018-05-09T11:04:41.445Z,100726.44
2018-05-09T11:05:45.564Z,100724.59
2018-05-09T11:06:49.646Z,100725.09
2018-05-09T11:07:53.856Z,100716.96
2018-05-09T11:08:57.960Z,100725.78
2018-05-09T11:10:02.103Z,100732.91
2018-05-09T11:11:06.242Z,100733.42
2018-05-09T11:12:10.630Z,100728.52
2018-05-09T11:13:14.819Z,100726.88
2018-05-09T11:14:18.991Z,100728.39
2018-05-09T11:15:23.454Z,100719.12
2018-05-09T11:16:27.556Z,100721.36
2018-05-09T11:17:31.662Z,100715.09
2018-05-09T11:18:36.142Z,100722.02
2018-05-09T11:19:40.226Z,100717.52
2018-05-09T11:20:44.304Z,100720.72
2018-05-09T11:21:48.382Z,100713.62
2018-05-09T11:22:52.554Z,100709.41
2018-05-09T11:23:56.630Z,100707.27
2018-05-09T11:25:01.139Z,100709.95
2018-05-09T11:26:06.498Z,100709.41
2018-05-09T11:27:10.564Z,100707.75
2018-05-09T11:28:14.745Z,100708.53
2018-05-09T11:29:18.886Z,100720.41
2018-05-09T11:30:23.499Z,100717.36
2018-05-09T11:31:28.016Z,100711.75
2018-05-09T11:32:32.444Z,100706.74
2018-05-09T11:33:37.526Z,100707.09
2018-05-09T11:34:41.677Z,100705.16
2018-05-09T11:35:45.843Z,100705.69
2018-05-09T11:36:50.232Z,100699.39
2018-05-09T11:37:54.349Z,100704.14
2018-05-09T11:38:58.433Z,100698.70
2018-05-09T11:40:03.800Z,100702.78
2018-05-09T11:41:08.779Z,100710.48
2018-05-09T11:42:12.885Z,100702.57
2018-05-09T11:43:17.103Z,100699.27
2018-05-09T11:44:21.235Z,100703.88
2018-05-09T11:45:25.339Z,100701.08
2018-05-09T11:46:29.561Z,100709.36
2018-05-09T11:47:33.646Z,100705.09
2018-05-09T11:48:38.344Z,100704.27
2018-05-09T11:49:42.711Z,100701.19
2018-05-09T11:50:46.896Z,100696.55
2018-05-09T11:51:51.043Z,100697.36
2018-05-09T11:52:55.123Z,100704.59
2018-05-09T11:53:59.195Z,100696.30
2018-05-09T11:55:03.388Z,100700.63
2018-05-09T11:56:07.760Z,100701.72
2018-05-09T11:57:11.879Z,100695.48
2018-05-09T11:58:15.993Z,100697.45
2018-05-09T11:59:20.360Z,100696.28
2018-05-09T12:00:24.423Z,100701.05
2018-05-09T12:01:28.597Z,100703.86
2018-05-09T12:02:33.043Z,100691.05
2018-05-09T12:03:37.747Z,100693.84
2018-05-09T12:04:41.902Z,100691.68
2018-05-09T12:05:46.027Z,100687.05
2018-05-09T12:06:50.152Z,100678.75
2018-05-09T12:07:54.357Z,100696.05
2018-05-09T12:08:58.751Z,100687.38
2018-05-09T12:10:03.721Z,100690.08
2018-05-09T12:11:07.895Z,100675.45
2018-05-09T12:12:12.098Z,100691.32
2018-05-09T12:13:16.269Z,100683.30
2018-05-09T12:14:20.653Z,100682.40
2018-05-09T12:15:24.809Z,100691.27
2018-05-09T12:16:29.072Z,100682.83
2018-05-09T12:17:33.585Z,100691.05
2018-05-09T12:18:38.127Z,100681.41
2018-05-09T12:19:42.326Z,100676.73